Time;durP1;ratioP1;P1;durP2;ratioP2;P2;SDS_P1;SDS_P2;PMS_P1;PMS_P2;Temp;Humidity;BMP_temperature;BMP_pressure;BME280_temperature;BME280_humidity;BME280_pressure;Samples;Min_cycle;Max_cycle;Signal;HPM_P1;HPM_P2
2022/05/11 00:02:25;;;;;;;23.33;13.83;;;12.50;83.00;;;;;;4845647;29;20307;-69
2022/05/11 00:04:51;;;;;;;26.30;14.30;;;12.50;83.30;;;;;;4820772;29;20452;-69
2022/05/11 00:07:16;;;;;;;26.83;13.40;;;12.50;83.20;;;;;;4818796;29;20126;-69
2022/05/11 00:09:42;;;;;;;23.13;13.33;;;12.50;82.80;;;;;;4833621;29;20492;-68
2022/05/11 00:12:08;;;;;;;24.90;14.23;;;12.60;82.60;;;;;;4805178;29;20054;-68
2022/05/11 00:14:35;;;;;;;26.15;14.23;;;12.60;82.80;;;;;;4828928;29;20502;-69
2022/05/11 00:17:00;;;;;;;26.13;14.50;;;12.60;82.80;;;;;;4813286;29;20066;-69
2022/05/11 00:19:27;;;;;;;28.47;14.20;;;12.60;83.00;;;;;;4858660;29;20292;-69
2022/05/11 00:21:53;;;;;;;29.83;14.13;;;12.60;82.80;;;;;;4811043;29;20128;-69
2022/05/11 00:24:19;;;;;;;22.53;13.10;;;12.60;83.10;;;;;;4826129;29;20374;-69
2022/05/11 00:26:45;;;;;;;25.80;14.13;;;12.60;82.80;;;;;;4830178;29;20034;-69
2022/05/11 00:29:10;;;;;;;27.10;14.23;;;12.60;82.60;;;;;;4827507;29;20327;-69
2022/05/11 00:31:36;;;;;;;26.47;13.43;;;12.70;83.00;;;;;;4810370;29;20126;-69
2022/05/11 00:34:02;;;;;;;27.37;13.80;;;12.70;82.80;;;;;;4810121;29;20129;-69
2022/05/11 00:36:28;;;;;;;25.03;13.20;;;12.70;82.80;;;;;;4845621;29;20133;-69
2022/05/11 00:38:54;;;;;;;28.50;14.33;;;12.70;82.60;;;;;;4827832;29;20049;-69
2022/05/11 00:41:20;;;;;;;21.60;13.17;;;12.80;82.50;;;;;;4833100;29;20081;-69
2022/05/11 00:43:56;;;;;;;22.73;12.80;;;12.70;82.30;;;;;;4810439;29;20126;-69
2022/05/11 00:46:29;;;;;;;27.03;12.67;;;12.80;82.60;;;;;;4847135;29;20055;-69
2022/05/11 00:51:47;;;;;;;21.43;11.50;;;12.80;82.50;;;;;;4864486;29;20735;-69
2022/05/11 00:54:15;;;;;;;29.67;12.47;;;12.80;82.40;;;;;;4833986;29;20283;-69
2022/05/11 00:56:46;;;;;;;23.83;11.53;;;12.80;82.20;;;;;;4830283;29;20284;-69
2022/05/11 00:59:16;;;;;;;19.27;11.20;;;12.80;82.30;;;;;;4824684;29;20322;-69
2022/05/11 01:01:42;;;;;;;25.23;11.90;;;12.80;82.30;;;;;;4834446;29;20337;-69
2022/05/11 01:04:12;;;;;;;24.40;12.17;;;12.90;82.30;;;;;;4813949;29;20307;-69
2022/05/11 01:06:41;;;;;;;20.00;11.60;;;12.90;82.00;;;;;;4855132;29;20292;-69
2022/05/11 01:09:07;;;;;;;16.27;10.37;;;12.90;81.80;;;;;;4842757;29;20287;-69
2022/05/11 01:11:41;;;;;;;21.77;11.93;;;12.90;81.70;;;;;;4817471;29;20808;-69
2022/05/11 01:14:10;;;;;;;23.60;12.33;;;12.90;81.70;;;;;;4852491;29;20322;-69
2022/05/11 01:16:38;;;;;;;18.13;10.70;;;12.90;81.70;;;;;;4854375;29;20308;-69
2022/05/11 01:19:04;;;;;;;24.93;11.10;;;12.90;81.80;;;;;;4865896;29;20302;-69
2022/05/11 01:21:43;;;;;;;18.60;10.53;;;12.80;81.50;;;;;;4817833;29;20326;-69
2022/05/11 01:24:33;;;;;;;21.60;10.77;;;12.80;81.40;;;;;;4856457;29;20433;-69
2022/05/11 01:27:23;;;;;;;22.73;10.90;;;12.80;82.00;;;;;;4865971;29;20571;-69
2022/05/11 01:29:48;;;;;;;20.03;10.40;;;12.80;81.80;;;;;;4838004;29;20543;-69
2022/05/11 01:32:14;;;;;;;24.10;11.07;;;12.80;81.80;;;;;;4850071;29;20845;-69
2022/05/11 01:34:41;;;;;;;20.67;11.03;;;12.70;81.70;;;;;;4821227;29;20046;-69
2022/05/11 01:37:06;;;;;;;18.40;10.37;;;12.70;81.80;;;;;;4826208;29;20125;-69
2022/05/11 01:39:32;;;;;;;19.23;10.73;;;12.70;81.50;;;;;;4816589;29;20838;-69
2022/05/11 01:41:58;;;;;;;18.87;10.57;;;12.70;81.40;;;;;;4816461;29;20503;-69
2022/05/11 01:44:23;;;;;;;20.80;10.77;;;12.70;81.30;;;;;;4832392;29;20245;-69
2022/05/11 01:46:53;;;;;;;21.03;10.53;;;12.70;81.50;;;;;;4829792;29;20125;-69
2022/05/11 01:49:20;;;;;;;16.17;9.70;;;12.70;81.30;;;;;;4828553;29;20053;-69
2022/05/11 01:51:46;;;;;;;20.40;9.77;;;12.70;81.50;;;;;;4845793;29;20704;-69
2022/05/11 01:54:12;;;;;;;21.57;9.33;;;12.70;81.60;;;;;;4836354;29;20304;-69
2022/05/11 01:56:38;;;;;;;18.27;8.90;;;12.70;81.90;;;;;;4836907;29;20352;-69
2022/05/11 01:59:04;;;;;;;20.07;9.67;;;12.70;81.80;;;;;;4841800;29;20073;-69
2022/05/11 02:01:31;;;;;;;22.30;9.50;;;12.70;81.60;;;;;;4852300;29;20417;-69
2022/05/11 02:03:57;;;;;;;15.23;8.17;;;12.70;81.50;;;;;;4869124;29;20292;-69
2022/05/11 02:09:08;;;;;;;13.73;7.80;;;12.70;81.60;;;;;;4857893;29;20515;-69
2022/05/11 02:11:34;;;;;;;15.77;7.63;;;12.70;81.40;;;;;;4867323;29;20381;-69
2022/05/11 02:14:00;;;;;;;15.00;7.60;;;12.70;81.60;;;;;;4832850;29;20429;-69
2022/05/11 02:16:26;;;;;;;16.17;8.57;;;12.80;81.50;;;;;;4832127;29;20049;-69
2022/05/11 02:18:54;;;;;;;21.17;8.43;;;12.80;81.50;;;;;;4821622;29;20724;-69
2022/05/11 02:21:20;;;;;;;14.83;7.73;;;12.80;81.40;;;;;;4853336;29;20331;-69
2022/05/11 02:23:48;;;;;;;16.07;7.50;;;12.90;81.50;;;;;;4826705;29;20937;-69
2022/05/11 02:26:14;;;;;;;14.50;7.40;;;12.80;81.10;;;;;;4852395;29;20039;-69
2022/05/11 02:28:39;;;;;;;17.37;7.90;;;12.90;81.20;;;;;;4841383;29;20359;-69
2022/05/11 02:31:05;;;;;;;18.13;8.13;;;12.80;81.10;;;;;;4838088;29;20411;-69
2022/05/11 02:33:31;;;;;;;14.73;7.43;;;12.80;81.00;;;;;;4832483;29;20046;-69
2022/05/11 02:35:58;;;;;;;13.43;7.37;;;12.80;81.30;;;;;;4853663;29;20073;-69
2022/05/11 02:38:26;;;;;;;16.53;7.37;;;12.80;81.20;;;;;;4830491;29;20097;-69
2022/05/11 02:40:53;;;;;;;21.13;7.83;;;12.80;81.10;;;;;;4845983;29;20337;-69
2022/05/11 02:43:19;;;;;;;19.43;7.07;;;12.80;80.90;;;;;;4826607;29;20375;-69
2022/05/11 02:45:46;;;;;;;12.63;7.03;;;12.90;80.80;;;;;;4842286;29;20357;-69
2022/05/11 02:48:15;;;;;;;18.30;7.70;;;12.90;80.80;;;;;;4815717;29;20801;-69
2022/05/11 02:50:44;;;;;;;15.87;7.37;;;12.90;80.80;;;;;;4829297;29;20900;-69
2022/05/11 02:53:11;;;;;;;19.07;7.67;;;12.90;80.70;;;;;;4835518;29;20360;-69
2022/05/11 02:55:38;;;;;;;17.50;8.30;;;12.90;80.60;;;;;;4851197;29;20360;-69
2022/05/11 02:58:05;;;;;;;15.43;7.57;;;13.00;80.90;;;;;;4834029;29;20394;-69
2022/05/11 03:00:31;;;;;;;18.07;7.57;;;12.90;80.90;;;;;;4822330;29;20299;-69
2022/05/11 03:02:59;;;;;;;16.20;7.90;;;13.00;81.00;;;;;;4842584;29;20781;-69
2022/05/11 03:05:25;;;;;;;18.83;8.13;;;13.00;81.50;;;;;;4834354;29;20298;-69
2022/05/11 03:07:50;;;;;;;16.40;7.80;;;13.00;81.40;;;;;;4841239;29;20797;-69
2022/05/11 03:10:16;;;;;;;14.67;6.97;;;13.00;81.20;;;;;;4826796;29;20050;-69
2022/05/11 03:12:42;;;;;;;19.13;7.50;;;13.00;81.10;;;;;;4830899;29;20046;-69
2022/05/11 03:15:09;;;;;;;15.93;6.83;;;13.00;81.20;;;;;;4816526;29;20184;-69
2022/05/11 03:17:35;;;;;;;17.57;7.73;;;13.00;81.30;;;;;;4856042;29;20110;-69
2022/05/11 03:20:03;;;;;;;16.43;7.23;;;13.00;81.00;;;;;;4853260;29;20276;-69
2022/05/11 03:22:28;;;;;;;17.97;6.97;;;13.00;81.00;;;;;;4854018;29;20399;-69
2022/05/11 03:24:54;;;;;;;17.57;7.27;;;13.00;81.00;;;;;;4827956;29;20324;-69
2022/05/11 03:27:20;;;;;;;14.50;6.73;;;13.00;80.90;;;;;;4852930;29;20045;-69
2022/05/11 03:29:47;;;;;;;17.33;6.50;;;13.00;80.80;;;;;;4833330;29;20046;-69
2022/05/11 03:34:57;;;;;;;12.23;6.13;;;13.00;80.80;;;;;;4819666;29;20376;-69
2022/05/11 03:37:23;;;;;;;14.40;6.27;;;13.00;80.70;;;;;;4855197;29;20302;-69
2022/05/11 03:39:49;;;;;;;17.43;6.60;;;13.00;80.70;;;;;;4842634;29;20058;-69
2022/05/11 03:42:18;;;;;;;20.27;6.10;;;13.00;80.60;;;;;;4835147;29;20340;-69
2022/05/11 03:44:44;;;;;;;15.70;6.27;;;13.00;80.40;;;;;;4851154;29;20299;-69
2022/05/11 03:47:10;;;;;;;14.23;5.93;;;12.90;80.40;;;;;;4805003;29;20290;-69
2022/05/11 03:49:36;;;;;;;14.23;6.17;;;12.90;80.40;;;;;;4832288;29;20302;-69
2022/05/11 03:52:02;;;;;;;14.20;5.80;;;12.90;80.40;;;;;;4831911;29;20329;-69
2022/05/11 03:54:28;;;;;;;15.73;6.53;;;12.90;80.20;;;;;;4838288;29;20121;-69
2022/05/11 03:56:54;;;;;;;15.87;5.83;;;12.90;80.30;;;;;;4826665;29;20440;-69
2022/05/11 03:59:19;;;;;;;17.43;6.37;;;12.90;80.20;;;;;;4812305;29;20047;-69
2022/05/11 04:01:45;;;;;;;13.47;6.50;;;12.90;80.00;;;;;;4828300;29;20061;-69
2022/05/11 04:04:11;;;;;;;14.17;5.67;;;12.90;79.90;;;;;;4839337;29;20042;-69
2022/05/11 04:06:37;;;;;;;14.43;5.70;;;12.90;79.90;;;;;;4816473;29;20183;-69
2022/05/11 04:09:03;;;;;;;15.03;5.70;;;13.00;79.60;;;;;;4820846;29;20518;-69
2022/05/11 04:11:29;;;;;;;16.87;6.17;;;13.00;79.60;;;;;;4840340;29;20062;-69
2022/05/11 04:13:55;;;;;;;10.90;5.60;;;13.00;79.60;;;;;;4811003;29;20929;-69
2022/05/11 04:16:22;;;;;;;14.80;5.60;;;13.00;79.50;;;;;;4848823;29;20840;-69
2022/05/11 04:18:48;;;;;;;15.87;5.90;;;13.10;79.40;;;;;;4857222;29;20307;-69
2022/05/11 04:21:14;;;;;;;16.27;5.90;;;13.10;79.40;;;;;;4827095;29;20305;-69
2022/05/11 04:23:40;;;;;;;20.40;6.53;;;13.10;79.40;;;;;;4823543;29;20304;-69
2022/05/11 04:26:13;;;;;;;14.80;5.93;;;13.10;79.30;;;;;;4825121;29;20049;-69
2022/05/11 04:28:43;;;;;;;15.23;6.07;;;13.20;79.30;;;;;;4828462;29;20835;-69
2022/05/11 04:31:10;;;;;;;18.63;6.47;;;13.20;79.20;;;;;;4831599;29;20711;-69
2022/05/11 04:33:36;;;;;;;15.33;6.77;;;13.20;79.30;;;;;;4827092;29;20383;-69
2022/05/11 04:36:04;;;;;;;18.73;6.10;;;13.20;79.40;;;;;;4850493;29;20361;-69
2022/05/11 04:38:30;;;;;;;15.90;5.87;;;13.30;79.30;;;;;;4835447;29;20711;-69
2022/05/11 04:40:55;;;;;;;19.90;6.50;;;13.30;79.30;;;;;;4831638;29;20638;-69
2022/05/11 04:43:21;;;;;;;18.47;5.57;;;13.30;79.50;;;;;;4843311;29;20448;-69
2022/05/11 04:45:48;;;;;;;12.07;5.23;;;13.30;79.50;;;;;;4850279;29;20920;-69
2022/05/11 04:48:16;;;;;;;12.27;5.13;;;13.40;79.30;;;;;;4831758;29;20125;-69
2022/05/11 04:50:44;;;;;;;20.17;5.50;;;13.40;79.00;;;;;;4835148;29;20311;-69
2022/05/11 04:53:11;;;;;;;16.23;5.17;;;13.50;78.70;;;;;;4820014;29;20299;-69
2022/05/11 04:55:37;;;;;;;14.80;5.23;;;13.50;78.60;;;;;;4855621;29;20300;-69
2022/05/11 04:58:04;;;;;;;17.47;4.90;;;13.50;78.40;;;;;;4809563;29;20297;-69
2022/05/11 05:00:31;;;;;;;16.73;5.07;;;13.50;78.50;;;;;;4863416;29;20295;-69
2022/05/11 05:02:57;;;;;;;14.83;5.20;;;13.60;78.30;;;;;;4854148;29;20295;-69
2022/05/11 05:05:22;;;;;;;14.93;5.63;;;13.60;78.10;;;;;;4832444;29;20325;-69
2022/05/11 05:07:48;;;;;;;17.47;5.90;;;13.60;78.00;;;;;;4819495;29;20069;-69
2022/05/11 05:10:15;;;;;;;11.50;5.03;;;13.60;77.90;;;;;;4831568;29;20046;-69
2022/05/11 05:12:42;;;;;;;17.33;5.13;;;13.70;77.80;;;;;;4855661;29;20085;-69
2022/05/11 05:15:10;;;;;;;19.23;5.53;;;13.70;77.40;;;;;;4845894;29;20296;-69
2022/05/11 05:17:37;;;;;;;17.83;5.50;;;13.70;77.40;;;;;;4824140;29;20376;-69
2022/05/11 05:20:04;;;;;;;13.67;5.00;;;13.80;77.10;;;;;;4850110;29;20385;-69
2022/05/11 05:22:30;;;;;;;13.63;5.93;;;13.80;76.90;;;;;;4819090;29;20311;-69
2022/05/11 05:24:56;;;;;;;15.00;5.60;;;13.80;76.80;;;;;;4846389;29;20294;-69
2022/05/11 05:27:22;;;;;;;17.87;5.20;;;13.80;76.50;;;;;;4830735;29;20042;-69
2022/05/11 05:32:38;;;;;;;16.03;5.40;;;13.90;76.20;;;;;;4832983;29;20056;-69
2022/05/11 05:35:05;;;;;;;17.97;5.17;;;13.90;75.80;;;;;;4844394;29;20299;-70
2022/05/11 05:37:31;;;;;;;16.87;5.20;;;14.00;75.80;;;;;;4847090;29;20311;-70
2022/05/11 05:39:57;;;;;;;14.20;4.87;;;14.10;75.30;;;;;;4854850;29;20355;-69
2022/05/11 05:42:25;;;;;;;14.67;4.90;;;14.20;75.20;;;;;;4822263;29;20303;-69
2022/05/11 05:44:51;;;;;;;15.20;4.80;;;14.20;74.90;;;;;;4854940;29;20081;-69
2022/05/11 05:47:17;;;;;;;16.23;4.27;;;14.20;74.90;;;;;;4855158;29;20323;-69
2022/05/11 05:49:44;;;;;;;16.40;4.77;;;14.20;74.60;;;;;;4852366;29;20531;-69
2022/05/11 05:52:17;;;;;;;16.20;4.47;;;14.20;74.60;;;;;;4858029;29;20286;-69
2022/05/11 05:54:43;;;;;;;15.80;4.07;;;14.20;74.70;;;;;;4854161;29;20605;-69
2022/05/11 05:57:09;;;;;;;11.47;4.67;;;14.20;74.30;;;;;;4840389;29;20348;-69
2022/05/11 05:59:35;;;;;;;11.17;4.03;;;14.20;74.30;;;;;;4841102;29;20051;-69
2022/05/11 06:02:00;;;;;;;12.80;3.87;;;14.30;74.20;;;;;;4851079;29;20321;-69
2022/05/11 06:04:26;;;;;;;18.37;3.97;;;14.30;73.40;;;;;;4834277;29;20068;-69
2022/05/11 06:06:52;;;;;;;13.50;4.20;;;14.40;73.40;;;;;;4824884;29;20042;-69
2022/05/11 06:09:18;;;;;;;18.70;4.40;;;14.30;72.40;;;;;;4845041;29;20857;-69
2022/05/11 06:11:44;;;;;;;22.50;4.07;;;14.20;73.20;;;;;;4836002;29;20294;-69
2022/05/11 06:14:10;;;;;;;15.57;3.43;;;14.30;73.20;;;;;;4842635;29;20058;-69
2022/05/11 06:16:36;;;;;;;18.53;3.63;;;14.40;72.70;;;;;;4836068;29;20300;-69
2022/05/11 06:19:02;;;;;;;17.03;3.80;;;14.40;72.60;;;;;;4855597;29;20117;-70
2022/05/11 06:21:29;;;;;;;15.50;4.03;;;14.40;72.30;;;;;;4861865;29;20311;-70
2022/05/11 06:23:55;;;;;;;12.93;3.43;;;14.40;72.20;;;;;;4848127;29;20354;-69
2022/05/11 06:26:21;;;;;;;10.93;3.43;;;14.40;72.60;;;;;;4853326;29;20803;-69
2022/05/11 06:28:47;;;;;;;16.13;3.87;;;14.40;72.50;;;;;;4835308;29;20042;-69
2022/05/11 06:31:14;;;;;;;11.67;2.97;;;14.40;72.80;;;;;;4858831;29;20390;-69
2022/05/11 06:33:39;;;;;;;15.43;3.67;;;14.40;73.00;;;;;;4866346;29;20064;-69
2022/05/11 06:36:07;;;;;;;14.80;3.53;;;14.50;72.40;;;;;;4856862;29;20613;-69
2022/05/11 06:38:34;;;;;;;11.67;3.40;;;14.60;72.50;;;;;;4831595;29;20078;-69
2022/05/11 06:41:23;;;;;;;19.33;3.80;;;14.50;72.20;;;;;;4820964;29;20308;-69
2022/05/11 06:43:51;;;;;;;13.17;3.40;;;14.60;71.80;;;;;;4830625;29;20284;-70
2022/05/11 06:46:18;;;;;;;15.80;4.00;;;14.60;71.90;;;;;;4833188;29;20275;-69
2022/05/11 06:48:45;;;;;;;15.83;3.40;;;14.60;72.00;;;;;;4860771;29;20634;-69
2022/05/11 06:51:12;;;;;;;15.43;3.80;;;14.70;71.50;;;;;;4832888;29;20343;-69
2022/05/11 06:59:22;;;;;;;17.37;3.77;;;14.60;72.00;;;;;;4820321;29;20116;-69
2022/05/11 07:01:53;;;;;;;11.80;3.10;;;14.60;72.40;;;;;;4842736;29;20722;-69
2022/05/11 07:04:22;;;;;;;21.03;4.73;;;14.70;71.70;;;;;;4838269;29;20293;-69
2022/05/11 07:06:50;;;;;;;20.77;3.83;;;14.60;72.40;;;;;;4838717;29;20740;-69
2022/05/11 07:09:15;;;;;;;17.00;3.80;;;14.80;72.00;;;;;;4839873;29;20474;-69
2022/05/11 07:14:25;;;;;;;23.47;4.33;;;15.00;71.10;;;;;;4824857;29;20050;-69
2022/05/11 07:16:51;;;;;;;17.50;4.40;;;15.10;71.00;;;;;;4837388;29;20314;-69
2022/05/11 07:19:21;;;;;;;19.93;3.87;;;15.10;70.80;;;;;;4830693;29;20407;-69
2022/05/11 07:21:47;;;;;;;18.73;4.17;;;15.10;71.10;;;;;;4820415;29;20061;-69
2022/05/11 07:24:12;;;;;;;18.27;4.57;;;15.10;70.80;;;;;;4865231;29;20326;-69
2022/05/11 07:26:38;;;;;;;17.37;3.93;;;15.20;71.20;;;;;;4834572;29;20323;-69
2022/05/11 07:29:04;;;;;;;16.63;4.30;;;15.30;70.60;;;;;;4850514;29;20460;-69
2022/05/11 07:31:30;;;;;;;19.90;4.07;;;15.40;70.30;;;;;;4835014;29;20378;-69
2022/05/11 07:33:56;;;;;;;16.30;3.77;;;15.50;70.70;;;;;;4867056;29;20444;-69
2022/05/11 07:36:24;;;;;;;19.03;3.83;;;15.60;70.00;;;;;;4840679;29;20382;-69
2022/05/11 07:38:51;;;;;;;20.33;4.33;;;15.50;69.40;;;;;;4838082;29;20507;-69
2022/05/11 07:41:17;;;;;;;19.20;4.17;;;15.50;69.90;;;;;;4850259;29;20322;-69
2022/05/11 07:43:43;;;;;;;18.20;4.23;;;15.60;70.40;;;;;;4838303;29;20767;-67
2022/05/11 07:46:09;;;;;;;16.00;4.03;;;15.70;69.90;;;;;;4821692;29;20298;-67
2022/05/11 07:48:35;;;;;;;16.67;3.50;;;15.80;69.60;;;;;;4869307;29;20046;-67
2022/05/11 07:51:01;;;;;;;20.77;4.20;;;15.90;69.10;;;;;;4833935;29;20336;-67
2022/05/11 07:53:27;;;;;;;21.97;4.60;;;15.90;69.10;;;;;;4850743;29;20300;-67
2022/05/11 08:01:22;;;;;;;22.13;4.53;;;15.90;68.70;;;;;;4832407;29;20054;-68
2022/05/11 08:03:48;;;;;;;19.60;4.27;;;15.90;68.70;;;;;;4850876;29;20292;-68
2022/05/11 08:06:16;;;;;;;20.40;4.57;;;16.00;68.10;;;;;;4820841;29;20034;-67
2022/05/11 08:08:42;;;;;;;15.53;3.97;;;16.30;68.40;;;;;;4839814;29;20500;-69
2022/05/11 08:11:08;;;;;;;17.97;4.10;;;16.60;67.40;;;;;;4834738;29;20383;-69
2022/05/11 08:13:34;;;;;;;18.87;4.13;;;16.70;67.40;;;;;;4840337;29;20296;-70
2022/05/11 08:16:01;;;;;;;14.50;3.60;;;17.00;66.90;;;;;;4841847;29;20301;-68
2022/05/11 08:18:27;;;;;;;17.53;3.60;;;17.00;65.10;;;;;;4817640;29;20143;-67
2022/05/11 08:20:53;;;;;;;20.20;3.80;;;16.90;64.20;;;;;;4848890;29;20318;-67
2022/05/11 08:23:19;;;;;;;19.70;4.27;;;16.90;64.90;;;;;;4860800;29;20676;-68
2022/05/11 08:25:50;;;;;;;17.60;4.07;;;16.70;64.80;;;;;;4840495;29;20038;-68
2022/05/11 08:28:21;;;;;;;19.77;4.40;;;16.60;65.80;;;;;;4834132;29;20318;-67
2022/05/11 08:33:35;;;;;;;12.40;3.45;;;17.00;66.10;;;;;;4863641;29;20346;-68
2022/05/11 08:36:14;;;;;;;14.30;3.40;;;17.10;64.10;;;;;;4857836;29;20129;-68
2022/05/11 08:38:43;;;;;;;17.17;3.80;;;17.30;64.80;;;;;;4849464;29;20295;-67
2022/05/11 08:41:27;;;;;;;15.97;3.83;;;17.60;64.30;;;;;;4819778;29;20379;-67
2022/05/11 08:43:58;;;;;;;17.52;3.60;;;17.70;64.10;;;;;;4827968;29;20297;-68
2022/05/11 08:46:43;;;;;;;14.20;4.03;;;18.00;63.10;;;;;;4863397;29;20053;-68
2022/05/11 08:49:16;;;;;;;16.73;3.25;;;18.00;62.30;;;;;;4847706;29;20295;-68
2022/05/11 08:51:48;;;;;;;16.40;3.77;;;18.20;62.60;;;;;;4836472;29;20518;-67
2022/05/11 08:54:21;;;;;;;15.50;3.73;;;18.40;62.40;;;;;;4838130;29;20292;-68
2022/05/11 08:56:49;;;;;;;19.17;4.47;;;18.70;61.90;;;;;;4835897;29;20286;-68
2022/05/11 08:59:21;;;;;;;20.17;3.97;;;19.00;60.60;;;;;;4861578;29;20801;-68
2022/05/11 09:02:22;;;;;;;16.30;3.43;;;19.20;59.60;;;;;;4827992;29;20315;-68
2022/05/11 09:04:52;;;;;;;16.33;2.93;;;18.70;59.30;;;;;;4811748;29;20325;-68
2022/05/11 09:07:18;;;;;;;16.73;2.63;;;18.50;58.90;;;;;;4865287;29;20397;-68
2022/05/11 09:09:44;;;;;;;17.43;3.37;;;18.30;59.30;;;;;;4859254;29;20283;-68
2022/05/11 09:12:11;;;;;;;10.17;2.60;;;18.20;59.70;;;;;;4832340;29;20287;-68
2022/05/11 09:14:44;;;;;;;15.47;3.30;;;18.00;58.90;;;;;;4866516;29;20788;-68
2022/05/11 09:17:37;;;;;;;14.30;2.80;;;17.90;58.70;;;;;;4852847;29;20775;-68
2022/05/11 09:20:06;;;;;;;14.17;2.63;;;17.70;60.20;;;;;;4833319;29;20379;-68
2022/05/11 09:22:34;;;;;;;12.90;3.00;;;17.80;60.30;;;;;;4819435;29;20315;-68
2022/05/11 09:25:10;;;;;;;13.93;2.80;;;17.70;59.70;;;;;;4814245;29;20283;-68
2022/05/11 09:27:37;;;;;;;13.30;2.97;;;17.70;60.20;;;;;;4829862;29;20286;-68
2022/05/11 09:30:22;;;;;;;8.33;2.30;;;17.90;58.70;;;;;;4867404;29;20288;-68
2022/05/11 09:32:53;;;;;;;14.95;3.47;;;18.00;60.20;;;;;;4869786;29;20302;-68
2022/05/11 09:35:36;;;;;;;11.97;2.83;;;18.40;59.80;;;;;;4834472;29;20046;-68
2022/05/11 09:38:19;;;;;;;12.77;2.67;;;18.80;57.20;;;;;;4817999;29;20805;-68
2022/05/11 09:40:56;;;;;;;11.30;1.97;;;18.80;55.50;;;;;;4862290;29;20795;-68
2022/05/11 09:43:50;;;;;;;10.67;1.80;;;18.60;55.10;;;;;;4853703;29;20287;-68
2022/05/11 09:46:17;;;;;;;11.47;1.53;;;18.50;55.80;;;;;;4869888;29;20663;-68
2022/05/11 09:49:04;;;;;;;6.97;1.47;;;18.60;54.50;;;;;;4870455;29;20286;-68
2022/05/11 09:51:43;;;;;;;11.10;2.13;;;18.30;54.00;;;;;;4853034;29;21081;-68
2022/05/11 09:54:51;;;;;;;8.17;1.87;;;18.40;56.00;;;;;;4852999;29;20295;-68
2022/05/11 09:57:26;;;;;;;10.37;1.83;;;18.50;54.00;;;;;;4853794;29;20297;-68
2022/05/11 09:59:56;;;;;;;8.97;1.47;;;18.40;54.00;;;;;;4841738;29;20385;-68
2022/05/11 10:02:46;;;;;;;6.77;1.27;;;18.20;53.50;;;;;;4868951;29;20824;-68
2022/05/11 10:05:24;;;;;;;6.50;1.33;;;18.10;52.20;;;;;;4831786;29;20334;-68
2022/05/11 10:08:01;;;;;;;7.47;1.13;;;18.10;53.60;;;;;;4859720;29;20387;-68
2022/05/11 10:10:43;;;;;;;9.10;1.40;;;18.10;53.40;;;;;;4833510;29;20299;-68
2022/05/11 10:13:14;;;;;;;13.03;2.03;;;18.20;54.40;;;;;;4845452;29;20292;-68
2022/05/11 10:24:00;;;;;;;12.40;2.63;;;17.90;56.40;;;;;;4859980;29;20094;-68
2022/05/11 10:26:37;;;;;;;10.20;1.80;;;17.90;56.80;;;;;;4821723;29;20291;-68
2022/05/11 10:29:28;;;;;;;14.33;3.07;;;18.10;56.80;;;;;;4853011;29;20294;-68
2022/05/11 10:32:24;;;;;;;11.83;2.40;;;18.40;58.30;;;;;;4826061;29;20328;-68
2022/05/11 10:34:58;;;;;;;10.67;2.20;;;18.60;56.60;;;;;;4809411;29;20401;-68
2022/05/11 10:37:42;;;;;;;10.82;2.42;;;18.80;56.90;;;;;;4844340;29;20318;-68
2022/05/11 10:40:30;;;;;;;10.53;2.30;;;18.60;56.70;;;;;;4850336;29;20406;-68
2022/05/11 10:43:13;;;;;;;10.30;2.00;;;18.90;57.20;;;;;;4850628;29;20326;-68
2022/05/11 10:45:54;;;;;;;10.20;2.03;;;19.40;55.60;;;;;;4815487;29;20636;-68
2022/05/11 10:48:57;;;;;;;10.40;1.87;;;19.80;52.70;;;;;;4852239;29;20379;-68
2022/05/11 10:51:46;;;;;;;11.60;2.43;;;20.20;52.00;;;;;;4851080;29;20050;-67
2022/05/11 10:54:15;;;;;;;7.63;2.20;;;20.30;51.60;;;;;;4821952;29;20050;-67
2022/05/11 10:57:02;;;;;;;12.37;2.50;;;20.40;51.10;;;;;;4853713;29;20046;-67
2022/05/11 11:00:06;;;;;;;11.73;2.73;;;20.20;53.20;;;;;;4832973;29;20049;-67
2022/05/11 11:02:50;;;;;;;12.37;3.73;;;20.70;52.70;;;;;;4808724;29;20045;-67
2022/05/11 11:05:44;;;;;;;18.60;4.90;;;20.80;53.30;;;;;;4838360;29;20085;-68
2022/05/11 11:08:40;;;;;;;15.50;4.23;;;20.80;53.70;;;;;;4822417;29;20062;-67
2022/05/11 11:11:08;;;;;;;18.63;4.13;;;20.90;54.00;;;;;;4827359;29;20110;-67
2022/05/11 11:13:51;;;;;;;15.40;4.30;;;20.70;52.90;;;;;;4867459;29;20088;-67
2022/05/11 11:16:18;;;;;;;15.33;4.33;;;20.40;54.70;;;;;;4820427;29;20089;-67
2022/05/11 11:18:48;;;;;;;15.93;4.17;;;20.20;54.20;;;;;;4856266;29;20527;-67
2022/05/11 11:21:14;;;;;;;17.63;4.40;;;20.20;54.10;;;;;;4847218;29;20069;-67
2022/05/11 11:23:42;;;;;;;18.17;4.40;;;20.20;54.30;;;;;;4847058;29;20050;-67
2022/05/11 11:26:11;;;;;;;17.80;4.20;;;20.30;55.00;;;;;;4867207;29;20046;-67
2022/05/11 11:28:40;;;;;;;15.07;4.07;;;20.50;55.00;;;;;;4864864;29;20054;-68
2022/05/11 11:31:14;;;;;;;16.73;4.67;;;20.90;53.80;;;;;;4836649;29;20140;-67
2022/05/11 11:34:08;;;;;;;14.70;4.43;;;21.10;53.70;;;;;;4832876;29;20448;-67
2022/05/11 11:36:36;;;;;;;19.37;4.40;;;21.30;52.20;;;;;;4822912;29;20054;-67
2022/05/11 11:39:05;;;;;;;15.00;4.70;;;21.20;53.30;;;;;;4813542;29;20450;-67
2022/05/11 11:41:33;;;;;;;14.50;4.80;;;20.90;53.50;;;;;;4848266;29;20050;-67
2022/05/11 11:44:05;;;;;;;12.07;3.27;;;20.60;53.10;;;;;;4820247;29;20129;-67
2022/05/11 11:46:36;;;;;;;10.60;3.83;;;20.20;53.60;;;;;;4804984;29;20050;-67
2022/05/11 11:49:18;;;;;;;19.10;4.33;;;19.80;54.80;;;;;;4858395;29;20050;-67
2022/05/11 11:52:05;;;;;;;13.63;2.83;;;19.70;55.00;;;;;;4835717;29;20054;-67
2022/05/11 11:54:46;;;;;;;9.37;3.27;;;19.30;54.30;;;;;;4816479;29;20122;-67
2022/05/11 11:57:21;;;;;;;10.77;2.30;;;18.90;55.10;;;;;;4861335;29;20507;-67
2022/05/11 11:59:57;;;;;;;9.45;2.05;;;18.70;54.60;;;;;;4866789;29;20053;-67
2022/05/11 12:02:36;;;;;;;6.83;2.27;;;18.60;54.20;;;;;;4852002;29;20042;-67
2022/05/11 12:05:07;;;;;;;13.37;2.67;;;18.70;55.00;;;;;;4868038;29;20045;-67
2022/05/11 12:16:21;;;;;;;9.10;2.40;;;19.70;52.30;;;;;;4856835;29;20065;-67
2022/05/11 12:18:47;;;;;;;9.43;2.43;;;19.80;52.00;;;;;;4861218;29;20420;-68
2022/05/11 12:21:29;;;;;;;13.67;3.20;;;20.10;51.90;;;;;;4862810;29;20042;-67
2022/05/11 12:23:57;;;;;;;9.07;2.90;;;20.40;52.20;;;;;;4864737;29;20045;-67
2022/05/11 12:26:31;;;;;;;14.07;2.83;;;20.20;52.10;;;;;;4865488;29;20056;-67
2022/05/11 12:31:59;;;;;;;14.43;3.43;;;20.20;51.70;;;;;;4860775;29;20129;-67
2022/05/11 12:34:29;;;;;;;12.80;3.37;;;20.40;52.30;;;;;;4860327;29;20046;-67
2022/05/11 12:36:56;;;;;;;13.83;3.10;;;20.60;51.40;;;;;;4838807;29;20110;-68
2022/05/11 12:39:33;;;;;;;13.93;4.20;;;20.40;50.80;;;;;;4866625;29;20142;-67
2022/05/11 12:42:00;;;;;;;15.97;5.10;;;19.40;54.90;;;;;;4860066;29;20419;-67
2022/05/11 12:44:32;;;;;;;14.13;4.50;;;19.00;56.20;;;;;;4818306;29;20043;-67
2022/05/11 12:47:03;;;;;;;22.77;5.27;;;18.90;57.10;;;;;;4819772;29;20046;-67
2022/05/11 12:49:29;;;;;;;17.73;4.80;;;18.40;58.00;;;;;;4819500;29;20125;-67
2022/05/11 12:52:00;;;;;;;19.47;5.20;;;18.40;61.10;;;;;;4842428;29;20050;-67
2022/05/11 12:54:29;;;;;;;15.20;4.27;;;18.90;59.20;;;;;;4835514;29;20170;-67
2022/05/11 12:57:07;;;;;;;13.70;4.10;;;18.80;57.80;;;;;;4842212;29;20508;-67
2022/05/11 12:59:35;;;;;;;12.67;4.00;;;18.80;57.60;;;;;;4837318;29;20702;-67
2022/05/11 13:02:16;;;;;;;13.83;3.60;;;19.10;57.10;;;;;;4850104;29;20541;-67
2022/05/11 13:05:00;;;;;;;16.87;3.17;;;19.30;55.60;;;;;;4817800;29;20043;-67
2022/05/11 13:07:56;;;;;;;13.33;2.70;;;19.20;55.10;;;;;;4846698;29;20287;-67
2022/05/11 13:10:28;;;;;;;13.93;2.87;;;19.30;56.30;;;;;;4819457;29;20058;-67
2022/05/11 13:12:56;;;;;;;14.37;4.23;;;19.90;54.50;;;;;;4831978;29;20504;-68
2022/05/11 13:15:45;;;;;;;16.17;3.67;;;20.30;54.00;;;;;;4858135;29;20097;-67
2022/05/11 13:18:26;;;;;;;15.60;3.43;;;20.20;53.10;;;;;;4858850;29;20052;-67
2022/05/11 13:20:54;;;;;;;17.17;3.93;;;19.70;53.20;;;;;;4848385;29;20494;-67
2022/05/11 13:23:33;;;;;;;18.97;3.27;;;19.20;53.90;;;;;;4844650;29;20379;-67
2022/05/11 13:26:09;;;;;;;14.90;3.30;;;18.90;54.80;;;;;;4814858;29;20041;-67
2022/05/11 13:28:41;;;;;;;15.97;3.53;;;18.90;55.30;;;;;;4861957;29;20046;-67
2022/05/11 13:31:27;;;;;;;12.00;3.07;;;18.60;56.80;;;;;;4864023;29;20291;-67
2022/05/11 13:33:53;;;;;;;13.67;2.80;;;18.80;57.10;;;;;;4857786;29;20289;-67
2022/05/11 13:36:41;;;;;;;10.47;2.50;;;19.00;55.80;;;;;;4855250;29;20050;-67
2022/05/11 13:39:10;;;;;;;13.43;2.83;;;19.10;55.50;;;;;;4856188;29;20292;-67
2022/05/11 13:41:55;;;;;;;16.40;2.83;;;19.10;54.80;;;;;;4832763;29;20463;-67